createdAt,value
2016-05-27T00:00:08.059Z,358295.4
2016-05-27T00:00:18.059Z,377849.2
2016-05-27T00:00:28.043Z,399734.1
2016-05-27T00:00:38.059Z,423953.3
2016-05-27T00:00:48.106Z,423953.3
2016-05-27T00:00:57.936Z,451477.5
2016-05-27T00:01:08.077Z,451477.5
2016-05-27T00:01:18.077Z,423953.3
2016-05-27T00:01:27.936Z,423953.3
2016-05-27T00:01:38.092Z,451477.5
2016-05-27T00:01:48.092Z,451477.5
2016-05-27T00:01:58.111Z,451477.5
2016-05-27T00:02:08.142Z,451477.5
2016-05-27T00:02:18.111Z,451477.5
2016-05-27T00:02:28.158Z,139786.4
2016-05-27T00:02:37.970Z,324626.6
2016-05-27T00:02:48.142Z,284024.6
2016-05-27T00:02:57.989Z,284024.6
2016-05-27T00:03:08.161Z,324626.6
2016-05-27T00:03:18.161Z,377849.2
2016-05-27T00:03:28.458Z,399734.1
2016-05-27T00:03:38.036Z,423953.3
2016-05-27T00:03:48.208Z,451477.5
2016-05-27T00:03:58.742Z,451477.5
2016-05-27T00:04:08.195Z,482504.8
2016-05-27T00:04:18.054Z,451477.5
2016-05-27T00:04:28.711Z,482504.8
2016-05-27T00:04:38.226Z,451477.5
2016-05-27T00:04:48.242Z,451477.5
2016-05-27T00:04:58.275Z,451477.5
2016-05-27T00:05:08.228Z,451477.5
2016-05-27T00:05:18.244Z,451477.5
2016-05-27T00:05:28.259Z,451477.5
2016-05-27T00:05:38.244Z,482504.8
2016-05-27T00:05:48.259Z,482504.8
2016-05-27T00:05:58.137Z,518009.1
2016-05-27T00:06:08.122Z,518009.1
2016-05-27T00:06:18.278Z,518009.1
2016-05-27T00:06:28.278Z,156331
2016-05-27T00:06:38.184Z,482504.8
2016-05-27T00:06:48.278Z,451477.5
2016-05-27T00:06:58.359Z,451477.5
2016-05-27T00:07:08.312Z,451477.5
2016-05-27T00:07:18.328Z,451477.5
2016-05-27T00:07:28.359Z,451477.5
2016-05-27T00:07:38.344Z,451477.5
2016-05-27T00:07:48.359Z,482504.8
2016-05-27T00:07:58.377Z,482504.8
2016-05-27T00:08:08.377Z,482504.8
2016-05-27T00:08:18.392Z,482504.8
2016-05-27T00:08:28.377Z,451477.5
2016-05-27T00:08:38.424Z,451477.5
2016-05-27T00:08:48.439Z,451477.5
2016-05-27T00:08:58.380Z,399734.1
2016-05-27T00:09:08.395Z,377849.2
2016-05-27T00:09:28.427Z,142863.5
2016-05-27T00:09:48.427Z,399734.1
2016-05-27T00:09:58.461Z,377849.2
2016-05-27T00:10:08.492Z,399734.1
2016-05-27T00:10:18.445Z,399734.1
2016-05-27T00:10:28.461Z,377849.2
2016-05-27T00:10:38.461Z,340684.1
2016-05-27T00:10:48.492Z,377849.2
2016-05-27T00:10:58.494Z,377849.2
2016-05-27T00:11:08.463Z,358295.4
2016-05-27T00:11:18.479Z,377849.2
2016-05-27T00:11:28.494Z,399734.1
2016-05-27T00:11:38.479Z,423953.3
2016-05-27T00:11:48.541Z,423953.3
2016-05-27T00:11:58.497Z,423953.3
2016-05-27T00:12:08.528Z,377849.2
2016-05-27T00:12:18.388Z,340684.1
2016-05-27T00:12:28.544Z,324626.6
2016-05-27T00:12:38.544Z,272624.2
2016-05-27T00:12:48.544Z,252344
2016-05-27T00:12:58.562Z,252344
2016-05-27T00:13:08.577Z,284024.6
2016-05-27T00:13:18.546Z,340684.1
2016-05-27T00:13:28.577Z,358295.4
2016-05-27T00:13:38.577Z,399734.1
2016-05-27T00:13:58.628Z,423953.3
2016-05-27T00:14:08.597Z,399734.1
2016-05-27T00:14:18.644Z,377849.2
2016-05-27T00:14:28.597Z,324626.6
2016-05-27T00:14:58.630Z,131326.9
2016-05-27T00:15:18.693Z,340684.1
2016-05-27T00:15:28.646Z,340684.1
2016-05-27T00:15:38.661Z,340684.1
2016-05-27T00:15:48.646Z,358295.4
2016-05-27T00:15:58.726Z,377849.2
2016-05-27T00:16:08.679Z,377849.2
2016-05-27T00:16:18.695Z,399734.1
2016-05-27T00:16:28.695Z,399734.1
2016-05-27T00:16:38.695Z,399734.1
2016-05-27T00:16:48.538Z,399734.1
2016-05-27T00:16:58.713Z,358295.4
2016-05-27T00:17:08.729Z,358295.4
2016-05-27T00:17:18.729Z,340684.1
2016-05-27T00:17:28.745Z,340684.1
2016-05-27T00:17:38.729Z,358295.4
2016-05-27T00:17:48.745Z,324626.6
2016-05-27T00:17:58.763Z,324626.6
2016-05-27T00:18:08.763Z,309928.3
2016-05-27T00:18:18.763Z,309928.3
2016-05-27T00:18:28.669Z,309928.3
2016-05-27T00:18:49.357Z,272624.2
2016-05-27T00:18:58.657Z,272624.2
2016-05-27T00:19:08.797Z,296394.4
2016-05-27T00:19:18.876Z,309928.3
2016-05-27T00:19:28.954Z,324626.6
2016-05-27T00:19:38.829Z,134018.2
2016-05-27T00:19:48.829Z,340684.1
2016-05-27T00:19:58.847Z,340684.1
2016-05-27T00:20:08.847Z,340684.1
2016-05-27T00:20:18.847Z,340684.1
2016-05-27T00:20:28.847Z,340684.1
2016-05-27T00:20:38.894Z,309928.3
2016-05-27T00:20:48.863Z,309928.3
2016-05-27T00:20:58.881Z,340684.1
2016-05-27T00:21:08.724Z,340684.1
2016-05-27T00:21:18.896Z,340684.1
2016-05-27T00:21:28.912Z,340684.1
2016-05-27T00:21:38.896Z,324626.6
2016-05-27T00:21:48.912Z,340684.1
2016-05-27T00:21:58.914Z,340684.1
2016-05-27T00:22:08.914Z,340684.1
2016-05-27T00:22:18.929Z,134018.2
2016-05-27T00:22:38.945Z,358295.4
2016-05-27T00:22:48.945Z,340684.1
2016-05-27T00:22:58.948Z,309928.3
2016-05-27T00:23:08.792Z,309928.3
2016-05-27T00:23:18.964Z,324626.6
2016-05-27T00:23:28.995Z,324626.6
2016-05-27T00:23:39.011Z,324626.6
2016-05-27T00:23:48.979Z,324626.6
2016-05-27T00:23:58.999Z,309928.3
2016-05-27T00:24:08.999Z,309928.3
2016-05-27T00:24:19.046Z,324626.6
2016-05-27T00:24:29.030Z,324626.6
2016-05-27T00:24:39.030Z,340684.1
2016-05-27T00:24:49.218Z,358295.4
2016-05-27T00:24:59.079Z,358295.4
2016-05-27T00:25:09.048Z,139786.4
2016-05-27T00:25:29.063Z,377849.2
2016-05-27T00:25:39.048Z,377849.2
2016-05-27T00:25:49.079Z,358295.4
2016-05-27T00:25:59.082Z,340684.1
2016-05-27T00:26:09.082Z,296394.4
2016-05-27T00:26:18.926Z,284024.6
2016-05-27T00:26:28.973Z,272624.2
2016-05-27T00:26:39.098Z,296394.4
2016-05-27T00:26:49.113Z,324626.6
2016-05-27T00:26:59.131Z,340684.1
2016-05-27T00:27:09.115Z,324626.6
2016-05-27T00:27:19.131Z,284024.6
2016-05-27T00:27:29.131Z,262000
2016-05-27T00:27:39.147Z,262000
2016-05-27T00:27:49.287Z,284024.6
2016-05-27T00:27:59.009Z,296394.4
2016-05-27T00:28:09.196Z,309928.3
2016-05-27T00:28:19.165Z,309928.3
2016-05-27T00:28:29.243Z,309928.3
2016-05-27T00:28:39.181Z,296394.4
2016-05-27T00:28:49.196Z,284024.6
2016-05-27T00:28:59.214Z,272624.2
2016-05-27T00:29:09.245Z,252344
2016-05-27T00:29:19.214Z,243076.7
2016-05-27T00:29:29.089Z,243076.7
2016-05-27T00:29:39.245Z,262000
2016-05-27T00:29:49.183Z,284024.6
2016-05-27T00:29:59.248Z,123831.9
2016-05-27T00:30:09.248Z,126329.9
2016-05-27T00:30:39.280Z,262000
2016-05-27T00:30:49.280Z,262000
2016-05-27T00:30:59.158Z,262000
2016-05-27T00:31:09.298Z,284024.6
2016-05-27T00:31:19.283Z,284024.6
2016-05-27T00:31:29.329Z,272624.2
2016-05-27T00:31:39.314Z,284024.6
2016-05-27T00:31:49.314Z,284024.6
2016-05-27T00:31:59.332Z,272624.2
2016-05-27T00:32:09.332Z,284024.6
2016-05-27T00:32:19.332Z,296394.4
2016-05-27T00:32:29.676Z,309928.3
2016-05-27T00:32:39.348Z,324626.6
2016-05-27T00:32:49.364Z,309928.3
2016-05-27T00:32:59.381Z,296394.4
2016-05-27T00:33:09.397Z,309928.3
2016-05-27T00:33:19.381Z,309928.3
2016-05-27T00:33:30.116Z,309928.3
2016-05-27T00:33:39.413Z,128828.3
2016-05-27T00:33:49.538Z,309928.3
2016-05-27T00:33:59.259Z,284024.6
2016-05-27T00:34:10.306Z,296394.4
2016-05-27T00:34:19.353Z,309928.3
2016-05-27T00:34:29.462Z,324626.6
2016-05-27T00:34:39.431Z,340684.1
2016-05-27T00:34:49.447Z,340684.1
2016-05-27T00:34:59.464Z,358295.4
2016-05-27T00:35:09.449Z,358295.4
2016-05-27T00:35:19.464Z,324626.6
2016-05-27T00:35:29.464Z,358295.4
2016-05-27T00:35:39.480Z,358295.4
2016-05-27T00:35:49.480Z,358295.4
2016-05-27T00:35:59.483Z,358295.4
2016-05-27T00:36:09.514Z,377849.2
2016-05-27T00:36:19.499Z,358295.4
2016-05-27T00:36:29.499Z,340684.1
2016-05-27T00:36:39.514Z,296394.4
2016-05-27T00:36:49.514Z,272624.2
2016-05-27T00:36:59.533Z,272624.2
2016-05-27T00:37:09.830Z,309928.3
2016-05-27T00:37:19.533Z,309928.3
2016-05-27T00:37:29.549Z,324626.6
2016-05-27T00:37:39.549Z,134018.2
2016-05-27T00:37:49.892Z,340684.1
2016-05-27T00:38:09.567Z,340684.1
2016-05-27T00:38:19.598Z,340684.1
2016-05-27T00:38:29.677Z,340684.1
2016-05-27T00:38:49.598Z,377849.2
2016-05-27T00:38:59.600Z,377849.2
2016-05-27T00:39:09.632Z,358295.4
2016-05-27T00:39:19.616Z,377849.2
2016-05-27T00:39:29.663Z,358295.4
2016-05-27T00:39:39.632Z,358295.4
2016-05-27T00:39:49.679Z,358295.4
2016-05-27T00:39:59.635Z,377849.2
2016-05-27T00:40:09.510Z,377849.2
2016-05-27T00:40:19.697Z,399734.1
2016-05-27T00:40:29.666Z,399734.1
2016-05-27T00:40:39.697Z,399734.1
2016-05-27T00:40:49.775Z,423953.3
2016-05-27T00:40:59.685Z,423953.3
2016-05-27T00:41:09.747Z,451477.5
2016-05-27T00:41:19.700Z,423953.3
2016-05-27T00:41:29.731Z,423953.3
2016-05-27T00:41:39.606Z,145941
2016-05-27T00:41:49.778Z,399734.1
2016-05-27T00:41:59.733Z,399734.1
2016-05-27T00:42:09.796Z,377849.2
2016-05-27T00:42:19.733Z,377849.2
2016-05-27T00:42:29.765Z,377849.2
2016-05-27T00:42:39.749Z,399734.1
2016-05-27T00:42:49.765Z,399734.1
2016-05-27T00:42:59.783Z,399734.1
2016-05-27T00:43:09.783Z,399734.1
2016-05-27T00:43:19.783Z,423953.3
2016-05-27T00:43:29.783Z,423953.3
2016-05-27T00:43:39.783Z,423953.3
2016-05-27T00:43:49.799Z,423953.3
2016-05-27T00:43:59.818Z,423953.3
2016-05-27T00:44:09.661Z,423953.3
2016-05-27T00:44:19.818Z,451477.5
2016-05-27T00:44:29.833Z,149211.3
2016-05-27T00:44:39.833Z,145941
2016-05-27T00:44:49.849Z,423953.3
2016-05-27T00:44:59.867Z,399734.1
2016-05-27T00:45:19.867Z,399734.1
2016-05-27T00:45:29.742Z,399734.1
2016-05-27T00:45:39.914Z,377849.2
2016-05-27T00:45:49.883Z,377849.2
2016-05-27T00:45:59.885Z,377849.2
2016-05-27T00:46:09.901Z,377849.2
2016-05-27T00:46:19.979Z,377849.2
2016-05-27T00:46:29.932Z,377849.2
2016-05-27T00:46:39.916Z,377849.2
2016-05-27T00:46:49.916Z,377849.2
2016-05-27T00:46:59.951Z,377849.2
2016-05-27T00:47:09.966Z,399734.1
2016-05-27T00:47:19.935Z,399734.1
2016-05-27T00:47:29.951Z,399734.1
2016-05-27T00:47:39.966Z,399734.1
2016-05-27T00:47:49.966Z,399734.1
2016-05-27T00:47:59.968Z,377849.2
2016-05-27T00:48:09.984Z,377849.2
2016-05-27T00:48:19.859Z,377849.2
2016-05-27T00:48:29.999Z,399734.1
2016-05-27T00:48:40.718Z,399734.1
2016-05-27T00:48:50.296Z,399734.1
2016-05-27T00:48:59.988Z,377849.2
2016-05-27T00:49:10.003Z,377849.2
2016-05-27T00:49:20.035Z,377849.2
2016-05-27T00:49:29.894Z,377849.2
2016-05-27T00:49:40.066Z,377849.2
2016-05-27T00:49:50.050Z,377849.2
2016-05-27T00:50:00.052Z,377849.2
2016-05-27T00:50:10.068Z,377849.2
2016-05-27T00:50:20.068Z,358295.4
2016-05-27T00:50:30.068Z,377849.2
2016-05-27T00:50:39.943Z,377849.2
2016-05-27T00:50:50.084Z,377849.2
2016-05-27T00:51:00.087Z,358295.4
2016-05-27T00:51:10.087Z,358295.4
2016-05-27T00:51:20.118Z,377849.2
2016-05-27T00:51:29.977Z,377849.2
2016-05-27T00:51:40.118Z,377849.2
2016-05-27T00:51:50.196Z,377849.2
2016-05-27T00:52:00.151Z,377849.2
2016-05-27T00:52:10.151Z,358295.4
2016-05-27T00:52:20.198Z,358295.4
2016-05-27T00:52:30.198Z,358295.4
2016-05-27T00:52:40.151Z,358295.4
2016-05-27T00:52:50.198Z,358295.4
2016-05-27T00:53:00.185Z,358295.4
2016-05-27T00:53:10.185Z,377849.2
2016-05-27T00:53:20.217Z,377849.2
2016-05-27T00:53:30.217Z,377849.2
2016-05-27T00:53:40.060Z,377849.2
2016-05-27T00:53:50.217Z,377849.2
2016-05-27T00:54:00.220Z,377849.2
2016-05-27T00:54:10.220Z,139786.4
2016-05-27T00:54:40.220Z,377849.2
2016-05-27T00:54:50.298Z,377849.2
2016-05-27T00:55:00.097Z,377849.2
2016-05-27T00:55:10.268Z,399734.1
2016-05-27T00:55:20.268Z,399734.1
2016-05-27T00:55:30.300Z,399734.1
2016-05-27T00:55:40.268Z,377849.2
2016-05-27T00:55:50.284Z,377849.2
2016-05-27T00:56:00.287Z,377849.2
2016-05-27T00:56:10.303Z,399734.1
2016-05-27T00:56:20.303Z,399734.1
2016-05-27T00:56:30.303Z,399734.1
2016-05-27T00:56:40.334Z,399734.1
2016-05-27T00:56:50.334Z,399734.1
2016-05-27T00:57:00.337Z,399734.1
2016-05-27T00:57:10.337Z,423953.3
2016-05-27T00:57:20.353Z,399734.1
2016-05-27T00:57:30.384Z,399734.1
2016-05-27T00:57:50.384Z,377849.2
2016-05-27T00:58:00.370Z,340684.1
2016-05-27T00:58:10.386Z,296394.4
2016-05-27T00:58:30.386Z,296394.4
2016-05-27T00:58:40.417Z,128828.3
2016-05-27T00:58:50.448Z,284024.6
2016-05-27T00:59:00.421Z,262000
2016-05-27T00:59:10.421Z,272624.2
2016-05-27T00:59:20.499Z,262000
2016-05-27T00:59:30.484Z,121526.3
2016-05-27T00:59:40.437Z,128443.9
2016-05-27T00:59:50.468Z,272624.2
2016-05-27T01:00:00.486Z,272624.2
2016-05-27T01:00:10.470Z,272624.2
2016-05-27T01:00:20.486Z,262000
2016-05-27T01:00:30.470Z,234583.8
2016-05-27T01:00:40.486Z,212204.2
2016-05-27T01:00:50.517Z,212204.2
2016-05-27T01:01:00.488Z,219148
2016-05-27T01:01:10.519Z,212204.2
2016-05-27T01:01:20.519Z,226672.1
2016-05-27T01:01:30.519Z,243076.7
2016-05-27T01:01:40.550Z,252344
2016-05-27T01:01:50.534Z,243076.7
2016-05-27T01:02:00.523Z,252344
2016-05-27T01:02:10.601Z,262000
2016-05-27T01:02:20.554Z,262000
2016-05-27T01:02:30.398Z,262000
2016-05-27T01:02:40.570Z,272624.2
2016-05-27T01:02:50.601Z,262000
2016-05-27T01:03:00.572Z,234583.8
2016-05-27T01:03:10.587Z,219148
2016-05-27T01:03:20.603Z,212204.2
2016-05-27T01:03:31.462Z,212204.2
2016-05-27T01:03:41.025Z,212204.2
2016-05-27T01:03:50.306Z,234583.8
2016-05-27T01:04:00.481Z,252344
2016-05-27T01:04:11.122Z,252344
2016-05-27T01:04:20.497Z,252344
2016-05-27T01:04:30.637Z,252344
2016-05-27T01:04:40.637Z,262000
2016-05-27T01:04:50.668Z,252344
2016-05-27T01:05:00.639Z,252344
2016-05-27T01:05:10.686Z,121142.3
2016-05-27T01:05:20.670Z,123447.7
2016-05-27T01:05:30.749Z,272624.2
2016-05-27T01:05:40.686Z,284024.6
2016-05-27T01:05:50.717Z,296394.4
2016-05-27T01:06:00.705Z,309928.3
2016-05-27T01:06:10.595Z,324626.6
2016-05-27T01:06:20.736Z,324626.6
2016-05-27T01:06:30.720Z,340684.1
2016-05-27T01:06:40.564Z,340684.1
2016-05-27T01:06:50.767Z,324626.6
2016-05-27T01:07:00.739Z,340684.1
2016-05-27T01:07:10.755Z,324626.6
2016-05-27T01:07:20.770Z,324626.6
2016-05-27T01:07:30.755Z,340684.1
2016-05-27T01:07:40.755Z,358295.4
2016-05-27T01:07:50.786Z,358295.4
2016-05-27T01:08:00.788Z,358295.4
2016-05-27T01:08:10.803Z,358295.4
2016-05-27T01:08:20.788Z,358295.4
2016-05-27T01:08:30.819Z,358295.4
2016-05-27T01:08:40.850Z,340684.1
2016-05-27T01:08:50.819Z,358295.4
2016-05-27T01:09:00.822Z,340684.1
2016-05-27T01:09:10.806Z,340684.1
2016-05-27T01:09:20.666Z,340684.1
2016-05-27T01:09:30.681Z,340684.1
2016-05-27T01:09:50.869Z,324626.6
2016-05-27T01:10:00.855Z,309928.3
2016-05-27T01:10:10.730Z,324626.6
2016-05-27T01:10:20.871Z,309928.3
2016-05-27T01:10:30.902Z,309928.3
2016-05-27T01:10:40.871Z,309928.3
2016-05-27T01:10:50.887Z,309928.3
2016-05-27T01:11:00.890Z,309928.3
2016-05-27T01:11:10.905Z,296394.4
2016-05-27T01:11:20.936Z,309928.3
2016-05-27T01:11:30.936Z,309928.3
2016-05-27T01:11:40.921Z,309928.3
2016-05-27T01:11:50.921Z,324626.6
2016-05-27T01:12:00.971Z,309928.3
2016-05-27T01:12:10.939Z,296394.4
2016-05-27T01:12:20.955Z,272624.2
2016-05-27T01:12:30.939Z,284024.6
2016-05-27T01:12:41.033Z,284024.6
2016-05-27T01:12:50.986Z,296394.4
2016-05-27T01:13:00.974Z,296394.4
2016-05-27T01:13:10.974Z,296394.4
2016-05-27T01:13:21.036Z,296394.4
2016-05-27T01:13:31.005Z,284024.6
2016-05-27T01:13:41.005Z,296394.4
2016-05-27T01:13:51.036Z,296394.4
2016-05-27T01:14:01.055Z,309928.3
2016-05-27T01:14:11.024Z,128828.3
2016-05-27T01:14:21.024Z,128828.3
2016-05-27T01:14:31.039Z,296394.4
2016-05-27T01:14:41.180Z,284024.6
2016-05-27T01:15:01.088Z,296394.4
2016-05-27T01:15:11.072Z,309928.3
2016-05-27T01:15:21.104Z,309928.3
2016-05-27T01:15:31.135Z,324626.6
2016-05-27T01:15:41.151Z,324626.6
2016-05-27T01:15:51.166Z,340684.1
2016-05-27T01:16:01.060Z,340684.1
2016-05-27T01:16:11.138Z,340684.1
2016-05-27T01:16:21.122Z,340684.1
2016-05-27T01:16:31.122Z,340684.1
2016-05-27T01:16:40.982Z,134018.2
2016-05-27T01:17:01.141Z,324626.6
2016-05-27T01:17:11.141Z,324626.6
2016-05-27T01:17:21.188Z,340684.1
2016-05-27T01:17:31.157Z,340684.1
2016-05-27T01:17:41.016Z,324626.6
2016-05-27T01:17:51.188Z,309928.3
2016-05-27T01:18:01.175Z,309928.3
2016-05-27T01:18:21.410Z,309928.3
2016-05-27T01:18:31.316Z,324626.6
2016-05-27T01:18:41.097Z,309928.3
2016-05-27T01:18:51.206Z,309928.3
2016-05-27T01:19:01.677Z,309928.3
2016-05-27T01:19:12.474Z,324626.6
2016-05-27T01:19:21.818Z,324626.6
2016-05-27T01:19:31.240Z,340684.1
2016-05-27T01:19:41.255Z,340684.1
2016-05-27T01:19:51.333Z,324626.6
2016-05-27T01:20:01.274Z,324626.6
2016-05-27T01:20:11.258Z,324626.6
2016-05-27T01:20:21.290Z,296394.4
2016-05-27T01:20:31.336Z,284024.6
2016-05-27T01:20:41.321Z,296394.4
2016-05-27T01:20:51.290Z,296394.4
2016-05-27T01:21:01.151Z,309928.3
2016-05-27T01:21:11.370Z,324626.6
2016-05-27T01:21:21.323Z,324626.6
2016-05-27T01:21:31.338Z,309928.3
2016-05-27T01:21:41.198Z,126329.9
2016-05-27T01:21:51.354Z,296394.4
2016-05-27T01:22:01.358Z,309928.3
2016-05-27T01:22:11.358Z,309928.3
2016-05-27T01:22:21.358Z,309928.3
2016-05-27T01:22:31.374Z,324626.6
2016-05-27T01:22:41.374Z,324626.6
2016-05-27T01:22:51.374Z,324626.6
2016-05-27T01:23:01.375Z,324626.6
2016-05-27T01:23:11.390Z,134018.2
2016-05-27T01:23:21.234Z,309928.3
2016-05-27T01:23:31.406Z,296394.4
2016-05-27T01:23:41.422Z,296394.4
2016-05-27T01:23:51.422Z,296394.4
2016-05-27T01:24:01.456Z,296394.4
2016-05-27T01:24:11.425Z,309928.3
2016-05-27T01:24:21.425Z,324626.6
2016-05-27T01:24:31.456Z,324626.6
2016-05-27T01:24:41.440Z,324626.6
2016-05-27T01:24:51.440Z,324626.6
2016-05-27T01:25:01.756Z,324626.6
2016-05-27T01:25:11.474Z,309928.3
2016-05-27T01:25:21.474Z,324626.6
2016-05-27T01:25:31.490Z,324626.6
2016-05-27T01:25:41.584Z,324626.6
2016-05-27T01:25:51.521Z,340684.1
2016-05-27T01:26:01.540Z,324626.6
2016-05-27T01:26:11.509Z,324626.6
2016-05-27T01:26:21.556Z,340684.1
2016-05-27T01:26:31.524Z,358295.4
2016-05-27T01:26:41.524Z,377849.2
2016-05-27T01:27:01.574Z,399734.1
2016-05-27T01:27:11.543Z,399734.1
2016-05-27T01:27:21.559Z,399734.1
2016-05-27T01:27:31.574Z,399734.1
2016-05-27T01:27:51.574Z,399734.1
2016-05-27T01:28:01.577Z,399734.1
2016-05-27T01:28:11.593Z,399734.1
2016-05-27T01:28:21.624Z,399734.1
2016-05-27T01:28:31.452Z,423953.3
2016-05-27T01:28:41.608Z,399734.1
2016-05-27T01:28:51.452Z,423953.3
2016-05-27T01:29:01.626Z,423953.3
2016-05-27T01:29:11.657Z,423953.3
2016-05-27T01:29:21.626Z,423953.3
2016-05-27T01:29:31.673Z,145941
2016-05-27T01:29:41.657Z,145941
2016-05-27T01:30:01.660Z,399734.1
2016-05-27T01:30:11.692Z,399734.1
2016-05-27T01:30:21.707Z,377849.2
2016-05-27T01:30:31.707Z,377849.2
2016-05-27T01:30:41.692Z,377849.2
2016-05-27T01:30:51.707Z,358295.4
2016-05-27T01:31:01.725Z,358295.4
2016-05-27T01:31:11.631Z,358295.4
2016-05-27T01:31:21.709Z,358295.4
2016-05-27T01:31:31.725Z,139786.4
2016-05-27T01:31:41.569Z,358295.4
2016-05-27T01:31:51.756Z,358295.4
2016-05-27T01:32:01.759Z,377849.2
2016-05-27T01:32:11.775Z,377849.2
2016-05-27T01:32:21.790Z,377849.2
2016-05-27T01:32:31.759Z,399734.1
2016-05-27T01:32:41.775Z,399734.1
2016-05-27T01:32:51.697Z,399734.1
2016-05-27T01:33:01.793Z,399734.1
2016-05-27T01:33:11.825Z,399734.1
2016-05-27T01:33:21.856Z,399734.1
2016-05-27T01:33:31.809Z,399734.1
2016-05-27T01:33:42.543Z,377849.2
2016-05-27T01:33:51.684Z,399734.1
2016-05-27T01:34:01.859Z,377849.2
2016-05-27T01:34:12.406Z,377849.2
2016-05-27T01:34:21.843Z,377849.2
2016-05-27T01:34:32.156Z,358295.4
2016-05-27T01:34:41.843Z,340684.1
2016-05-27T01:34:51.890Z,296394.4
2016-05-27T01:35:01.876Z,272624.2
2016-05-27T01:35:11.892Z,272624.2
2016-05-27T01:35:21.876Z,296394.4
2016-05-27T01:35:31.861Z,309928.3
2016-05-27T01:35:41.751Z,324626.6
2016-05-27T01:35:51.908Z,324626.6
2016-05-27T01:36:01.910Z,309928.3
2016-05-27T01:36:11.941Z,324626.6
2016-05-27T01:36:22.222Z,131326.9
2016-05-27T01:36:31.925Z,324626.6
2016-05-27T01:36:41.925Z,324626.6
2016-05-27T01:36:51.941Z,284024.6
2016-05-27T01:37:01.945Z,252344
2016-05-27T01:37:11.961Z,114611.6
2016-05-27T01:37:21.945Z,110579.4
2016-05-27T01:37:31.992Z,205454.7
2016-05-27T01:37:42.039Z,212204.2
2016-05-27T01:37:51.992Z,226672.1
2016-05-27T01:38:01.994Z,234583.8
2016-05-27T01:38:11.994Z,252344
2016-05-27T01:38:22.041Z,262000
2016-05-27T01:38:32.025Z,272624.2
2016-05-27T01:38:41.994Z,262000
2016-05-27T01:38:52.009Z,226672.1
2016-05-27T01:39:02.028Z,212204.2
2016-05-27T01:39:12.075Z,219148
2016-05-27T01:39:22.059Z,205454.7
2016-05-27T01:39:32.044Z,212204.2
2016-05-27T01:39:42.106Z,226672.1
2016-05-27T01:39:52.091Z,243076.7
2016-05-27T01:40:02.061Z,243076.7
2016-05-27T01:40:12.077Z,234583.8
2016-05-27T01:40:22.077Z,234583.8
2016-05-27T01:40:32.093Z,212204.2
2016-05-27T01:40:42.108Z,108659.6
2016-05-27T01:40:52.108Z,226672.1
2016-05-27T01:41:02.158Z,252344
2016-05-27T01:41:11.955Z,272624.2
2016-05-27T01:41:32.158Z,296394.4
2016-05-27T01:41:42.142Z,284024.6
2016-05-27T01:41:52.174Z,243076.7
2016-05-27T01:42:02.005Z,219148
2016-05-27T01:42:11.989Z,219148
2016-05-27T01:42:22.161Z,226672.1
2016-05-27T01:42:32.192Z,226672.1
2016-05-27T01:42:42.161Z,219148
2016-05-27T01:42:52.255Z,212204.2
2016-05-27T01:43:02.211Z,219148
2016-05-27T01:43:12.195Z,234583.8
2016-05-27T01:43:22.273Z,234583.8
2016-05-27T01:43:32.211Z,243076.7
2016-05-27T01:43:42.242Z,262000
2016-05-27T01:43:52.211Z,262000
2016-05-27T01:44:02.244Z,243076.7
2016-05-27T01:44:12.307Z,219148
2016-05-27T01:44:22.244Z,234583.8
2016-05-27T01:44:32.260Z,252344
2016-05-27T01:44:42.260Z,262000
2016-05-27T01:44:52.307Z,262000
2016-05-27T01:45:02.372Z,123447.7
2016-05-27T01:45:12.138Z,252344
2016-05-27T01:45:22.278Z,243076.7
2016-05-27T01:45:32.357Z,243076.7
2016-05-27T01:45:42.357Z,243076.7
2016-05-27T01:45:52.372Z,226672.1
2016-05-27T01:46:02.344Z,205454.7
2016-05-27T01:46:12.406Z,193502.6
2016-05-27T01:46:22.391Z,193502.6
2016-05-27T01:46:32.328Z,187913.7
2016-05-27T01:46:42.344Z,177702.8
2016-05-27T01:46:52.375Z,168266
2016-05-27T01:47:02.377Z,177702.8
2016-05-27T01:47:12.362Z,199285.3
2016-05-27T01:47:22.377Z,212204.2
2016-05-27T01:47:32.377Z,219148
2016-05-27T01:47:42.377Z,212204.2
2016-05-27T01:47:52.377Z,219148
2016-05-27T01:48:02.380Z,226672.1
2016-05-27T01:48:12.630Z,234583.8
2016-05-27T01:48:22.677Z,252344
2016-05-27T01:48:32.411Z,252344
2016-05-27T01:48:43.146Z,252344
2016-05-27T01:48:52.849Z,234583.8
2016-05-27T01:49:02.432Z,219148
2016-05-27T01:49:12.463Z,193502.6
2016-05-27T01:49:22.463Z,105012.7
2016-05-27T01:49:32.479Z,103285.6
2016-05-27T01:50:02.204Z,187913.7
2016-05-27T01:50:12.360Z,205454.7
2016-05-27T01:50:22.517Z,219148
2016-05-27T01:50:32.517Z,234583.8
2016-05-27T01:50:42.532Z,252344
2016-05-27T01:50:52.517Z,262000
2016-05-27T01:51:02.570Z,252344
2016-05-27T01:51:12.554Z,243076.7
2016-05-27T01:51:22.445Z,118837
2016-05-27T01:51:32.648Z,226672.1
2016-05-27T01:51:42.570Z,234583.8
2016-05-27T01:51:52.585Z,243076.7
2016-05-27T01:52:02.607Z,252344
2016-05-27T01:52:12.654Z,243076.7
2016-05-27T01:52:22.654Z,219148
2016-05-27T01:52:32.639Z,199285.3
2016-05-27T01:52:42.623Z,182518.8
2016-05-27T01:52:52.639Z,193502.6
2016-05-27T01:53:02.692Z,212204.2
2016-05-27T01:53:12.692Z,234583.8
2016-05-27T01:53:22.692Z,243076.7
2016-05-27T01:53:32.739Z,252344
2016-05-27T01:53:42.708Z,119221.2
2016-05-27T01:53:52.692Z,262000
2016-05-27T01:54:02.759Z,272624.2
2016-05-27T01:54:22.759Z,284024.6
2016-05-27T01:54:32.759Z,296394.4
2016-05-27T01:54:42.446Z,296394.4
2016-05-27T01:54:52.806Z,296394.4
2016-05-27T01:55:02.784Z,284024.6
2016-05-27T01:55:12.831Z,272624.2
2016-05-27T01:55:22.800Z,272624.2
2016-05-27T01:55:32.800Z,284024.6
2016-05-27T01:55:42.816Z,296394.4
2016-05-27T01:55:52.800Z,309928.3
2016-05-27T01:56:02.840Z,324626.6
2016-05-27T01:56:12.825Z,324626.6
2016-05-27T01:56:22.840Z,324626.6
2016-05-27T01:56:32.856Z,324626.6
2016-05-27T01:56:42.918Z,340684.1
2016-05-27T01:56:52.856Z,340684.1
2016-05-27T01:57:02.913Z,340684.1
2016-05-27T01:57:12.897Z,324626.6
2016-05-27T01:57:22.882Z,340684.1
2016-05-27T01:57:32.944Z,340684.1
2016-05-27T01:57:42.897Z,324626.6
2016-05-27T01:57:52.913Z,131326.9
2016-05-27T01:58:02.923Z,296394.4
2016-05-27T01:58:22.954Z,296394.4
2016-05-27T01:58:32.798Z,309928.3
2016-05-27T01:58:42.938Z,309928.3
2016-05-27T01:58:52.970Z,309928.3
2016-05-27T01:59:02.962Z,324626.6
2016-05-27T01:59:12.962Z,324626.6
2016-05-27T01:59:22.978Z,324626.6
2016-05-27T01:59:33.009Z,324626.6
2016-05-27T01:59:42.993Z,309928.3
2016-05-27T01:59:52.993Z,296394.4
2016-05-27T02:00:03.046Z,296394.4
2016-05-27T02:00:13.046Z,284024.6
2016-05-27T02:00:23.031Z,262000
2016-05-27T02:00:33.031Z,262000
2016-05-27T02:00:43.046Z,272624.2
2016-05-27T02:00:53.062Z,272624.2
2016-05-27T02:01:03.037Z,284024.6
2016-05-27T02:01:13.068Z,284024.6
2016-05-27T02:01:23.083Z,284024.6
2016-05-27T02:01:33.068Z,296394.4
2016-05-27T02:01:43.083Z,296394.4
2016-05-27T02:01:53.083Z,296394.4
2016-05-27T02:02:03.103Z,284024.6
2016-05-27T02:02:13.103Z,296394.4
2016-05-27T02:02:22.962Z,309928.3
2016-05-27T02:02:53.134Z,340684.1
2016-05-27T02:03:03.140Z,340684.1
2016-05-27T02:03:13.140Z,340684.1
2016-05-27T02:03:23.031Z,324626.6
2016-05-27T02:03:33.172Z,324626.6